createdAt,value
2022-09-30T00:01:04.636Z,14.74
2022-09-30T00:03:31.061Z,14.80
2022-09-30T00:06:08.118Z,14.80
2022-09-30T00:08:36.262Z,14.80
2022-09-30T00:11:08.176Z,14.83
2022-09-30T00:13:40.155Z,14.80
2022-09-30T00:16:07.746Z,14.81
2022-09-30T00:18:34.200Z,14.80
2022-09-30T00:21:01.908Z,14.73
2022-09-30T00:23:28.337Z,14.78
2022-09-30T00:26:03.821Z,14.78
2022-09-30T00:28:30.779Z,14.70
2022-09-30T00:31:02.414Z,14.70
2022-09-30T00:33:28.954Z,14.62
2022-09-30T00:35:55.381Z,14.58
2022-09-30T00:38:21.801Z,14.58
2022-09-30T00:40:48.908Z,14.61
2022-09-30T00:43:20.251Z,14.58
2022-09-30T00:45:54.703Z,14.50
2022-09-30T00:48:35.529Z,14.50
2022-09-30T00:51:05.037Z,14.53
2022-09-30T00:53:41.558Z,14.53
2022-09-30T00:56:13.291Z,14.49
2022-09-30T00:58:46.935Z,14.51
2022-09-30T01:01:15.071Z,14.53
2022-09-30T01:03:45.554Z,14.46
2022-09-30T01:06:12.288Z,14.33
2022-09-30T01:08:40.398Z,14.37
2022-09-30T01:11:08.306Z,14.40
2022-09-30T01:13:37.024Z,14.42
2022-09-30T01:16:16.004Z,14.34
2022-09-30T01:18:49.112Z,14.32
2022-09-30T01:21:43.116Z,14.37
2022-09-30T01:24:36.212Z,14.43
2022-09-30T01:27:21.368Z,14.40
2022-09-30T01:29:53.807Z,14.36
2022-09-30T01:32:54.041Z,14.30
2022-09-30T01:35:48.814Z,14.21
2022-09-30T01:38:29.270Z,14.17
2022-09-30T01:41:13.425Z,14.20
2022-09-30T01:43:55.167Z,14.23
2022-09-30T01:46:55.746Z,14.26
2022-09-30T01:49:28.016Z,14.32
2022-09-30T01:52:18.187Z,14.24
2022-09-30T01:55:10.678Z,14.16
2022-09-30T01:57:52.745Z,14.16
2022-09-30T02:00:19.509Z,14.10
2022-09-30T02:02:49.111Z,14.07
2022-09-30T02:05:32.584Z,13.98
2022-09-30T02:08:03.801Z,13.88
2022-09-30T02:10:30.081Z,13.81
2022-09-30T02:13:04.422Z,13.79
2022-09-30T02:15:40.245Z,13.78
2022-09-30T02:18:22.501Z,13.81
2022-09-30T02:20:53.164Z,13.80
2022-09-30T02:23:25.807Z,13.81
2022-09-30T02:26:01.657Z,13.78
2022-09-30T02:28:30.276Z,13.74
2022-09-30T02:31:00.829Z,13.71
2022-09-30T02:33:43.032Z,13.63
2022-09-30T02:36:21.212Z,13.72
2022-09-30T02:38:54.608Z,13.68
2022-09-30T02:41:27.051Z,13.75
2022-09-30T02:43:55.685Z,13.77
2022-09-30T02:46:43.650Z,13.78
2022-09-30T02:49:39.012Z,13.70
2022-09-30T02:52:24.135Z,13.65
2022-09-30T02:55:18.691Z,13.67
2022-09-30T02:57:51.028Z,13.67
2022-09-30T03:00:17.856Z,13.67
2022-09-30T03:02:44.336Z,13.68
2022-09-30T03:05:11.773Z,13.66
2022-09-30T03:07:38.533Z,13.73
2022-09-30T03:10:16.818Z,13.76
2022-09-30T03:12:49.057Z,13.77
2022-09-30T03:15:30.712Z,13.78
2022-09-30T03:18:30.315Z,13.76
2022-09-30T03:21:21.596Z,13.79
2022-09-30T03:24:11.049Z,13.80
2022-09-30T03:26:55.118Z,13.84
2022-09-30T03:29:31.645Z,13.83
2022-09-30T03:32:12.499Z,13.81
2022-09-30T03:35:07.049Z,13.89
2022-09-30T03:37:48.028Z,13.89
2022-09-30T03:40:43.632Z,13.86
2022-09-30T03:43:21.213Z,13.85
2022-09-30T03:46:03.037Z,13.88
2022-09-30T03:48:33.334Z,13.87
2022-09-30T03:51:00.668Z,13.91
2022-09-30T03:53:28.461Z,13.93
2022-09-30T03:55:55.080Z,13.97
2022-09-30T03:58:26.055Z,13.99
2022-09-30T04:00:54.243Z,14.01
2022-09-30T04:03:23.337Z,14.05
2022-09-30T04:05:50.058Z,14.13
2022-09-30T04:08:17.081Z,14.13
2022-09-30T04:10:44.006Z,14.11
2022-09-30T04:13:11.307Z,14.07
2022-09-30T04:15:38.230Z,14.00
2022-09-30T04:18:05.325Z,13.96
2022-09-30T04:20:32.334Z,13.89
2022-09-30T04:23:00.329Z,13.81
2022-09-30T04:25:28.082Z,13.86
2022-09-30T04:27:55.284Z,13.92
2022-09-30T04:30:25.573Z,13.88
2022-09-30T04:32:53.792Z,13.82
2022-09-30T04:35:20.433Z,13.77
2022-09-30T04:37:47.459Z,13.73
2022-09-30T04:40:15.972Z,13.75
2022-09-30T04:42:43.198Z,13.69
2022-09-30T04:45:13.584Z,13.66
2022-09-30T04:47:45.815Z,13.66
2022-09-30T04:50:14.020Z,13.66
2022-09-30T04:52:43.814Z,13.70
2022-09-30T04:55:10.877Z,13.62
2022-09-30T04:57:37.616Z,13.57
2022-09-30T05:00:05.121Z,13.52
2022-09-30T05:02:32.067Z,13.42
2022-09-30T05:04:58.462Z,13.38
2022-09-30T05:07:24.884Z,13.41
2022-09-30T05:09:53.176Z,13.50
2022-09-30T05:12:19.549Z,13.62
2022-09-30T05:14:45.943Z,13.70
2022-09-30T05:17:12.377Z,13.68
2022-09-30T05:19:38.783Z,13.63
2022-09-30T05:22:05.260Z,13.60
2022-09-30T05:24:31.726Z,13.66
2022-09-30T05:26:58.174Z,13.74
2022-09-30T05:29:24.616Z,13.78
2022-09-30T05:31:51.099Z,13.76
2022-09-30T05:34:17.575Z,13.73
2022-09-30T05:36:44.262Z,13.84
2022-09-30T05:39:11.523Z,13.83
2022-09-30T05:41:38.349Z,13.87
2022-09-30T05:44:05.326Z,13.89
2022-09-30T05:46:31.797Z,13.92
2022-09-30T05:48:58.236Z,13.96
2022-09-30T05:51:24.654Z,14.02
2022-09-30T05:53:51.937Z,14.04
2022-09-30T05:56:18.745Z,14.02
2022-09-30T05:58:45.165Z,14.00
2022-09-30T06:01:14.570Z,13.98
2022-09-30T06:03:46.645Z,14.01
2022-09-30T06:06:14.033Z,14.11
2022-09-30T06:08:41.277Z,14.13
2022-09-30T06:11:12.881Z,14.18
2022-09-30T06:13:40.757Z,14.20
2022-09-30T06:16:08.475Z,14.27
2022-09-30T06:18:35.581Z,14.33
2022-09-30T06:21:04.630Z,14.36
2022-09-30T06:23:32.281Z,14.41
2022-09-30T06:25:58.720Z,14.48
2022-09-30T06:28:25.383Z,14.58
2022-09-30T06:30:51.813Z,14.65
2022-09-30T06:33:18.375Z,14.66
2022-09-30T06:35:47.234Z,14.71
2022-09-30T06:38:17.325Z,14.69
2022-09-30T06:40:44.938Z,14.73
2022-09-30T06:43:11.561Z,14.79
2022-09-30T06:45:38.413Z,14.85
2022-09-30T06:48:09.018Z,14.90
2022-09-30T06:50:35.983Z,15.01
2022-09-30T06:53:06.281Z,15.05
2022-09-30T06:55:36.473Z,15.13
2022-09-30T06:58:02.903Z,15.18
2022-09-30T07:00:29.325Z,15.19
2022-09-30T07:02:59.097Z,15.17
2022-09-30T07:05:26.403Z,15.15
2022-09-30T07:07:54.059Z,15.15
2022-09-30T07:10:20.697Z,15.19
2022-09-30T07:12:51.944Z,15.23
2022-09-30T07:15:22.156Z,15.19
2022-09-30T07:17:56.727Z,15.19
2022-09-30T07:20:23.574Z,15.20
2022-09-30T07:22:50.095Z,15.29
2022-09-30T07:25:17.372Z,15.37
2022-09-30T07:27:44.520Z,15.40
2022-09-30T07:30:17.098Z,15.45
2022-09-30T07:32:47.584Z,15.46
2022-09-30T07:35:14.557Z,15.48
2022-09-30T07:37:41.010Z,15.53
2022-09-30T07:40:08.523Z,15.57
2022-09-30T07:42:40.246Z,15.60
2022-09-30T07:45:07.392Z,15.59
2022-09-30T07:47:35.760Z,15.61
2022-09-30T07:50:02.261Z,15.63
2022-09-30T07:52:31.603Z,15.63
2022-09-30T07:54:59.485Z,15.65
2022-09-30T07:57:29.861Z,15.74
2022-09-30T08:00:07.965Z,15.73
2022-09-30T08:02:45.907Z,15.77
2022-09-30T08:05:26.470Z,15.93
2022-09-30T08:07:52.927Z,16.02
2022-09-30T08:10:21.364Z,16.03
2022-09-30T08:12:47.862Z,15.94
2022-09-30T08:15:14.394Z,15.96
2022-09-30T08:17:41.338Z,15.98
2022-09-30T08:20:22.083Z,15.98
2022-09-30T08:22:52.064Z,15.93
2022-09-30T08:25:18.514Z,15.96
2022-09-30T08:27:45.167Z,15.93
2022-09-30T08:30:15.017Z,15.94
2022-09-30T08:32:41.638Z,15.93
2022-09-30T08:35:17.684Z,15.95
2022-09-30T08:37:44.163Z,15.95
2022-09-30T08:40:30.604Z,15.95
2022-09-30T08:43:47.470Z,15.97
2022-09-30T08:46:37.557Z,15.93
2022-09-30T08:49:33.192Z,15.97
2022-09-30T08:52:01.728Z,16.02
2022-09-30T08:54:37.822Z,16.20
2022-09-30T08:57:06.615Z,16.23
2022-09-30T08:59:38.431Z,16.26
2022-09-30T09:02:22.994Z,16.34
2022-09-30T09:04:52.650Z,16.32
2022-09-30T09:07:45.208Z,16.28
2022-09-30T09:10:24.098Z,16.32
2022-09-30T09:13:04.069Z,16.36
2022-09-30T09:15:54.154Z,16.33
2022-09-30T09:18:42.552Z,16.25
2022-09-30T09:21:20.033Z,16.21
2022-09-30T09:23:48.750Z,16.19
2022-09-30T09:26:16.113Z,16.11
2022-09-30T09:29:00.101Z,16.03
2022-09-30T09:31:27.103Z,16.04
2022-09-30T09:33:59.763Z,16.13
2022-09-30T09:36:43.416Z,16.09
2022-09-30T09:39:15.846Z,16.04
2022-09-30T09:41:47.001Z,15.97
2022-09-30T09:44:17.228Z,15.83
2022-09-30T09:46:50.890Z,15.84
2022-09-30T09:49:20.862Z,15.72
2022-09-30T09:51:54.665Z,15.66
2022-09-30T09:54:22.261Z,15.56
2022-09-30T09:56:52.904Z,15.62
2022-09-30T09:59:20.436Z,15.68
2022-09-30T10:01:53.490Z,15.60
2022-09-30T10:04:25.153Z,15.51
2022-09-30T10:06:56.244Z,15.51
2022-09-30T10:09:29.830Z,15.45
2022-09-30T10:12:05.503Z,15.34
2022-09-30T10:14:57.720Z,15.30
2022-09-30T10:17:33.304Z,15.25
2022-09-30T10:20:01.375Z,15.20
2022-09-30T10:22:30.744Z,15.18
2022-09-30T10:25:20.389Z,15.17
2022-09-30T10:27:50.281Z,15.24
2022-09-30T10:30:35.369Z,15.29
2022-09-30T10:33:06.543Z,15.22
2022-09-30T10:35:32.844Z,15.27
2022-09-30T10:38:00.475Z,15.30
2022-09-30T10:40:29.498Z,15.24
2022-09-30T10:42:56.713Z,15.21
2022-09-30T10:45:29.573Z,15.16
2022-09-30T10:47:56.985Z,15.21
2022-09-30T10:50:27.581Z,15.19
2022-09-30T10:52:58.059Z,15.19
2022-09-30T10:55:54.270Z,15.17
2022-09-30T10:58:44.984Z,15.18
2022-09-30T11:01:28.203Z,15.18
2022-09-30T11:04:24.099Z,15.27
2022-09-30T11:06:58.110Z,15.31
2022-09-30T11:09:37.169Z,15.33
2022-09-30T11:12:30.325Z,15.39
2022-09-30T11:15:11.080Z,15.41
2022-09-30T11:17:50.457Z,15.46
2022-09-30T11:20:27.844Z,15.41
2022-09-30T11:23:11.531Z,15.44
2022-09-30T11:25:49.635Z,15.37
2022-09-30T11:28:32.245Z,15.36
2022-09-30T11:30:58.598Z,15.30
2022-09-30T11:33:42.690Z,15.26
2022-09-30T11:36:42.264Z,15.31
2022-09-30T11:39:25.000Z,15.33
2022-09-30T11:42:20.329Z,15.34
2022-09-30T11:44:48.253Z,15.37
2022-09-30T11:47:36.156Z,15.34
2022-09-30T11:50:17.372Z,15.40
2022-09-30T11:52:58.933Z,15.46
2022-09-30T11:55:49.044Z,15.46
2022-09-30T11:58:40.386Z,15.39
2022-09-30T12:01:27.456Z,15.34
2022-09-30T12:04:08.415Z,15.37
2022-09-30T12:06:43.578Z,15.39
2022-09-30T12:09:37.251Z,15.36
2022-09-30T12:12:12.428Z,15.28
2022-09-30T12:15:01.069Z,15.33
2022-09-30T12:17:34.107Z,15.34
2022-09-30T12:20:08.557Z,15.45
2022-09-30T12:22:41.689Z,15.47
2022-09-30T12:25:19.699Z,15.58
2022-09-30T12:27:49.464Z,15.61
2022-09-30T12:30:20.461Z,15.68
2022-09-30T12:32:56.154Z,15.78
2022-09-30T12:35:43.376Z,15.71
2022-09-30T12:38:44.204Z,15.72
2022-09-30T12:41:41.488Z,15.82
2022-09-30T12:44:34.300Z,15.81
2022-09-30T12:47:31.689Z,15.73
2022-09-30T12:50:00.677Z,15.72
2022-09-30T12:52:33.926Z,15.75
2022-09-30T12:55:07.328Z,15.79
2022-09-30T12:57:39.997Z,15.88
2022-09-30T13:00:15.809Z,15.87
2022-09-30T13:02:46.165Z,15.89
2022-09-30T13:05:45.086Z,15.91
2022-09-30T13:08:25.115Z,15.85
2022-09-30T13:11:03.485Z,15.81
2022-09-30T13:13:34.024Z,15.85
2022-09-30T13:16:06.732Z,15.91
2022-09-30T13:18:33.248Z,15.92
2022-09-30T13:21:05.589Z,15.91
2022-09-30T13:23:47.020Z,15.87
2022-09-30T13:26:22.699Z,15.77
2022-09-30T13:28:50.236Z,15.69
2022-09-30T13:31:19.750Z,15.73
2022-09-30T13:34:09.175Z,15.84
2022-09-30T13:36:56.675Z,15.94
2022-09-30T13:39:23.075Z,15.87
2022-09-30T13:42:01.224Z,15.73
2022-09-30T13:45:01.885Z,15.77
2022-09-30T13:47:33.669Z,15.77
2022-09-30T13:50:16.206Z,15.81
2022-09-30T13:52:45.756Z,15.87
2022-09-30T13:55:21.515Z,15.81
2022-09-30T13:58:02.171Z,15.88
2022-09-30T14:00:47.916Z,15.93
2022-09-30T14:03:38.658Z,15.87
2022-09-30T14:06:43.777Z,15.77
2022-09-30T14:09:29.671Z,15.71
2022-09-30T14:12:40.969Z,15.71
2022-09-30T14:15:30.672Z,15.75
2022-09-30T14:18:11.142Z,15.68
2022-09-30T14:20:58.360Z,15.68
2022-09-30T14:23:24.935Z,15.73
2022-09-30T14:26:09.780Z,15.77
2022-09-30T14:29:01.160Z,15.75
2022-09-30T14:31:29.406Z,15.73
2022-09-30T14:33:56.523Z,15.77
2022-09-30T14:36:23.206Z,15.78
2022-09-30T14:38:54.709Z,15.73
2022-09-30T14:41:23.277Z,15.71
2022-09-30T14:43:56.511Z,15.71
2022-09-30T14:46:47.056Z,15.76
2022-09-30T14:49:17.207Z,15.80
2022-09-30T14:51:48.200Z,15.75
2022-09-30T14:54:22.197Z,15.71
2022-09-30T14:56:50.610Z,15.69
2022-09-30T14:59:20.695Z,15.67
2022-09-30T15:01:51.217Z,15.62
2022-09-30T15:04:22.800Z,15.61
2022-09-30T15:06:50.968Z,15.69
2022-09-30T15:09:38.716Z,15.68
2022-09-30T15:12:11.030Z,15.65
2022-09-30T15:14:53.951Z,15.67
2022-09-30T15:17:25.023Z,15.70
2022-09-30T15:19:51.518Z,15.66
2022-09-30T15:22:20.081Z,15.65
2022-09-30T15:24:48.156Z,15.70
2022-09-30T15:27:26.569Z,15.70
2022-09-30T15:30:21.729Z,15.67
2022-09-30T15:32:51.933Z,15.63
2022-09-30T15:35:30.917Z,15.64
2022-09-30T15:38:19.290Z,15.66
2022-09-30T15:40:50.477Z,15.66
2022-09-30T15:43:31.080Z,15.68
2022-09-30T15:45:59.610Z,15.62
2022-09-30T15:48:26.476Z,15.63
2022-09-30T15:51:03.122Z,15.65
2022-09-30T15:53:33.405Z,15.63
2022-09-30T15:56:22.756Z,15.63
2022-09-30T15:58:59.197Z,15.60
2022-09-30T16:01:42.594Z,15.55
2022-09-30T16:04:26.481Z,15.60
2022-09-30T16:07:26.269Z,15.50
2022-09-30T16:09:57.733Z,15.46
2022-09-30T16:12:28.110Z,15.49
2022-09-30T16:15:07.324Z,15.47
2022-09-30T16:17:37.844Z,15.50
2022-09-30T16:20:08.481Z,15.56
2022-09-30T16:22:40.791Z,15.61
2022-09-30T16:25:31.625Z,15.60
2022-09-30T16:28:02.362Z,15.52
2022-09-30T16:30:30.016Z,15.54
2022-09-30T16:32:59.336Z,15.55
2022-09-30T16:35:28.474Z,15.54
2022-09-30T16:38:03.356Z,15.52
2022-09-30T16:40:31.482Z,15.50
2022-09-30T16:42:58.954Z,15.48
2022-09-30T16:45:27.209Z,15.43
2022-09-30T16:47:54.287Z,15.43
2022-09-30T16:51:10.968Z,15.37
2022-09-30T16:53:37.499Z,15.28
2022-09-30T16:56:04.722Z,15.32
2022-09-30T16:58:31.732Z,15.38
2022-09-30T17:01:00.418Z,15.37
2022-09-30T17:03:27.079Z,15.41
2022-09-30T17:05:54.033Z,15.33
2022-09-30T17:08:21.642Z,15.26
2022-09-30T17:10:49.974Z,15.26
2022-09-30T17:13:18.173Z,15.27
2022-09-30T17:15:51.925Z,15.32
2022-09-30T17:18:19.490Z,15.32
2022-09-30T17:20:52.388Z,15.27
2022-09-30T17:23:24.109Z,15.26
2022-09-30T17:25:51.607Z,15.24
2022-09-30T17:28:18.140Z,15.21
2022-09-30T17:30:47.734Z,15.21
2022-09-30T17:33:15.012Z,15.21
2022-09-30T17:35:41.510Z,15.18
2022-09-30T17:38:09.047Z,15.17
2022-09-30T17:40:54.031Z,15.14
2022-09-30T17:43:20.776Z,15.11
2022-09-30T17:45:47.805Z,15.12
2022-09-30T17:48:16.254Z,15.09
2022-09-30T17:50:45.505Z,15.05
2022-09-30T17:53:14.269Z,15.01
2022-09-30T17:55:41.440Z,15.06
2022-09-30T17:58:09.310Z,15.05
2022-09-30T18:00:36.422Z,15.05
2022-09-30T18:03:03.249Z,14.98
2022-09-30T18:05:30.654Z,14.95
2022-09-30T18:07:57.307Z,14.92
2022-09-30T18:10:24.550Z,14.85
2022-09-30T18:12:53.669Z,14.81
2022-09-30T18:15:20.593Z,14.74
2022-09-30T18:17:47.117Z,14.77
2022-09-30T18:20:14.270Z,14.80
2022-09-30T18:22:41.111Z,14.81
2022-09-30T18:25:20.162Z,14.85
2022-09-30T18:27:48.439Z,14.87
2022-09-30T18:30:15.297Z,14.87
2022-09-30T18:32:42.139Z,14.82
2022-09-30T18:35:12.222Z,14.79
2022-09-30T18:37:39.902Z,14.73
2022-09-30T18:40:06.976Z,14.68
2022-09-30T18:42:33.467Z,14.71
2022-09-30T18:44:59.853Z,14.74
2022-09-30T18:47:26.284Z,14.73
2022-09-30T18:49:52.784Z,14.67
2022-09-30T18:52:19.190Z,14.68
2022-09-30T18:54:45.577Z,14.68
2022-09-30T18:57:11.965Z,14.67
2022-09-30T18:59:38.369Z,14.57
2022-09-30T19:02:04.881Z,14.52
2022-09-30T19:04:31.293Z,14.55
2022-09-30T19:06:57.739Z,14.50
2022-09-30T19:09:26.506Z,14.40
2022-09-30T19:11:55.723Z,14.33
2022-09-30T19:14:23.648Z,14.30
2022-09-30T19:16:51.787Z,14.23
2022-09-30T19:19:20.368Z,14.27
2022-09-30T19:21:48.723Z,14.34
2022-09-30T19:24:17.140Z,14.30
2022-09-30T19:26:43.876Z,14.23
2022-09-30T19:29:11.000Z,14.18
2022-09-30T19:31:37.897Z,14.15
2022-09-30T19:34:05.224Z,14.15
2022-09-30T19:36:40.716Z,14.22
2022-09-30T19:39:12.495Z,14.20
2022-09-30T19:41:39.158Z,14.19
2022-09-30T19:44:05.595Z,14.13
2022-09-30T19:46:32.193Z,14.14
2022-09-30T19:48:58.833Z,14.16
2022-09-30T19:51:26.337Z,14.21
2022-09-30T19:54:04.944Z,14.21
2022-09-30T19:56:34.902Z,14.15
2022-09-30T19:59:01.392Z,14.09
2022-09-30T20:01:29.524Z,14.11
2022-09-30T20:03:57.682Z,14.09
2022-09-30T20:06:24.230Z,14.10
2022-09-30T20:08:52.990Z,14.11
2022-09-30T20:11:21.907Z,14.02
2022-09-30T20:14:11.251Z,13.99
2022-09-30T20:16:38.127Z,14.04
2022-09-30T20:19:04.630Z,14.02
2022-09-30T20:21:31.388Z,14.01
2022-09-30T20:23:59.733Z,14.02
2022-09-30T20:26:26.403Z,13.96
2022-09-30T20:28:57.814Z,13.90
2022-09-30T20:31:25.444Z,13.91
2022-09-30T20:33:56.609Z,13.88
2022-09-30T20:36:24.098Z,13.83
2022-09-30T20:38:51.704Z,13.76
2022-09-30T20:41:18.198Z,13.75
2022-09-30T20:43:49.246Z,13.82
2022-09-30T20:46:15.666Z,13.85
2022-09-30T20:48:42.172Z,13.85
2022-09-30T20:51:12.383Z,13.75
2022-09-30T20:53:44.426Z,13.73
2022-09-30T20:56:15.130Z,13.70
2022-09-30T20:58:42.177Z,13.73
2022-09-30T21:01:19.982Z,13.75
2022-09-30T21:03:52.540Z,13.87
2022-09-30T21:06:29.467Z,13.93
2022-09-30T21:08:56.852Z,13.95
2022-09-30T21:11:24.000Z,13.95
2022-09-30T21:13:52.680Z,13.96
2022-09-30T21:16:22.010Z,13.98
2022-09-30T21:18:52.049Z,13.94
2022-09-30T21:21:19.770Z,13.90
2022-09-30T21:23:46.197Z,13.88
2022-09-30T21:26:14.923Z,13.85
2022-09-30T21:28:45.578Z,13.85
2022-09-30T21:31:21.108Z,13.84
2022-09-30T21:33:51.591Z,13.80
2022-09-30T21:36:18.160Z,13.85
2022-09-30T21:38:44.577Z,13.88
2022-09-30T21:41:10.960Z,13.88
2022-09-30T21:43:37.808Z,13.92
2022-09-30T21:46:06.860Z,13.94
2022-09-30T21:48:35.097Z,13.97
2022-09-30T21:51:02.549Z,13.92
2022-09-30T21:53:29.376Z,13.93
2022-09-30T21:55:57.758Z,13.97
2022-09-30T21:58:25.920Z,13.99
2022-09-30T22:00:56.678Z,13.97
2022-09-30T22:03:23.607Z,13.97
2022-09-30T22:05:53.968Z,13.92
2022-09-30T22:08:21.088Z,13.91
2022-09-30T22:10:47.956Z,13.92
2022-09-30T22:13:18.325Z,13.99
2022-09-30T22:15:46.603Z,14.02
2022-09-30T22:18:17.274Z,14.04
2022-09-30T22:20:44.560Z,14.03
2022-09-30T22:23:11.650Z,14.06
2022-09-30T22:25:38.300Z,14.05
2022-09-30T22:28:05.185Z,14.03
2022-09-30T22:30:32.885Z,14.07
2022-09-30T22:33:17.750Z,14.06
2022-09-30T22:36:03.062Z,14.07
2022-09-30T22:38:29.616Z,14.02
2022-09-30T22:40:56.069Z,14.05
2022-09-30T22:43:24.430Z,14.00
2022-09-30T22:46:05.133Z,13.99
2022-09-30T22:48:32.430Z,13.96
2022-09-30T22:50:59.314Z,13.92
2022-09-30T22:53:27.390Z,13.96
2022-09-30T22:55:54.284Z,13.94
2022-09-30T22:58:23.249Z,13.94
2022-09-30T23:00:52.846Z,13.94
2022-09-30T23:03:19.361Z,13.95
2022-09-30T23:05:46.357Z,13.87
2022-09-30T23:08:12.740Z,13.86
2022-09-30T23:10:46.288Z,13.88
2022-09-30T23:13:13.311Z,13.90
2022-09-30T23:15:39.773Z,13.94
2022-09-30T23:18:06.205Z,13.99
2022-09-30T23:20:32.933Z,14.00
2022-09-30T23:22:59.329Z,14.05
2022-09-30T23:25:25.721Z,14.06
2022-09-30T23:27:52.150Z,14.11
2022-09-30T23:30:18.675Z,14.13
2022-09-30T23:32:45.100Z,14.16
2022-09-30T23:35:12.998Z,14.15
2022-09-30T23:37:39.701Z,14.13
2022-09-30T23:40:06.781Z,14.11
2022-09-30T23:42:33.293Z,14.08
2022-09-30T23:44:59.747Z,14.05
2022-09-30T23:47:27.316Z,14.05
2022-09-30T23:49:55.340Z,14.10
2022-09-30T23:52:21.789Z,14.14
2022-09-30T23:54:48.233Z,14.17
2022-09-30T23:57:14.736Z,14.17
2022-09-30T23:59:41.181Z,14.19
